sensor_id;sensor_type;location;lat;lon;timestamp;pressure;altitude;pressure_sealevel;temperature;humidity
11077;BME280;5591;42.626;23.380;2022-10-16T00:01:36;94814.81;;;10.68;100.00
11077;BME280;5591;42.626;23.380;2022-10-16T00:04:03;94827.16;;;10.68;100.00
11077;BME280;5591;42.626;23.380;2022-10-16T00:06:30;94775.06;;;10.26;100.00
11077;BME280;5591;42.626;23.380;2022-10-16T00:08:58;94829.66;;;10.61;100.00
11077;BME280;5591;42.626;23.380;2022-10-16T00:11:26;94828.53;;;10.56;100.00
11077;BME280;5591;42.626;23.380;2022-10-16T00:13:56;94832.69;;;10.50;100.00
11077;BME280;5591;42.626;23.380;2022-10-16T00:16:24;94829.25;;;10.42;100.00
11077;BME280;5591;42.626;23.380;2022-10-16T00:18:52;94825.84;;;10.41;100.00
11077;BME280;5591;42.626;23.380;2022-10-16T00:21:21;94836.13;;;10.43;100.00
11077;BME280;5591;42.626;23.380;2022-10-16T00:23:50;94765.19;;;9.98;100.00
11077;BME280;5591;42.626;23.380;2022-10-16T00:26:18;94803.47;;;10.23;100.00
11077;BME280;5591;42.626;23.380;2022-10-16T00:28:46;94825.72;;;10.35;100.00
11077;BME280;5591;42.626;23.380;2022-10-16T00:31:13;94822.97;;;10.28;100.00
11077;BME280;5591;42.626;23.380;2022-10-16T00:33:40;94841.47;;;10.27;100.00
11077;BME280;5591;42.626;23.380;2022-10-16T00:36:11;94844.75;;;10.29;100.00
11077;BME280;5591;42.626;23.380;2022-10-16T00:38:38;94846.13;;;10.17;100.00
11077;BME280;5591;42.626;23.380;2022-10-16T00:41:05;94847.75;;;10.18;100.00
11077;BME280;5591;42.626;23.380;2022-10-16T00:43:37;94844.13;;;10.19;100.00
11077;BME280;5591;42.626;23.380;2022-10-16T00:46:10;94846.31;;;10.07;100.00
11077;BME280;5591;42.626;23.380;2022-10-16T00:48:39;94845.00;;;10.11;100.00
11077;BME280;5591;42.626;23.380;2022-10-16T00:51:08;94838.91;;;10.11;100.00
11077;BME280;5591;42.626;23.380;2022-10-16T00:53:35;94836.13;;;10.12;100.00
11077;BME280;5591;42.626;23.380;2022-10-16T00:56:03;94831.75;;;10.05;100.00
11077;BME280;5591;42.626;23.380;2022-10-16T00:58:30;94841.09;;;10.07;100.00
11077;BME280;5591;42.626;23.380;2022-10-16T01:00:57;94849.75;;;10.08;100.00
11077;BME280;5591;42.626;23.380;2022-10-16T01:03:26;94856.16;;;9.97;100.00
11077;BME280;5591;42.626;23.380;2022-10-16T01:06:01;94852.06;;;9.95;100.00
11077;BME280;5591;42.626;23.380;2022-10-16T01:08:35;94859.63;;;9.90;100.00
11077;BME280;5591;42.626;23.380;2022-10-16T01:11:12;94856.03;;;9.83;100.00
11077;BME280;5591;42.626;23.380;2022-10-16T01:13:44;94857.03;;;9.82;100.00
11077;BME280;5591;42.626;23.380;2022-10-16T01:16:17;94857.03;;;9.74;100.00
11077;BME280;5591;42.626;23.380;2022-10-16T01:18:52;94853.00;;;9.64;100.00
11077;BME280;5591;42.626;23.380;2022-10-16T01:21:23;94855.13;;;9.60;100.00
11077;BME280;5591;42.626;23.380;2022-10-16T01:24:00;94844.50;;;9.46;100.00
11077;BME280;5591;42.626;23.380;2022-10-16T01:26:41;94856.47;;;9.40;100.00
11077;BME280;5591;42.626;23.380;2022-10-16T01:29:15;94844.19;;;9.33;100.00
11077;BME280;5591;42.626;23.380;2022-10-16T01:31:49;94827.69;;;9.16;100.00
11077;BME280;5591;42.626;23.380;2022-10-16T01:34:20;94841.56;;;9.25;100.00
11077;BME280;5591;42.626;23.380;2022-10-16T01:36:53;94835.19;;;9.27;100.00
11077;BME280;5591;42.626;23.380;2022-10-16T01:39:24;94852.69;;;9.19;100.00
11077;BME280;5591;42.626;23.380;2022-10-16T01:41:55;94830.59;;;9.13;100.00
11077;BME280;5591;42.626;23.380;2022-10-16T01:44:29;94823.44;;;9.07;100.00
11077;BME280;5591;42.626;23.380;2022-10-16T01:46:58;94840.59;;;9.02;100.00
11077;BME280;5591;42.626;23.380;2022-10-16T01:49:30;94838.47;;;9.13;100.00
11077;BME280;5591;42.626;23.380;2022-10-16T01:52:00;94846.66;;;9.02;100.00
11077;BME280;5591;42.626;23.380;2022-10-16T01:54:30;94853.84;;;9.00;100.00
11077;BME280;5591;42.626;23.380;2022-10-16T01:56:59;94852.69;;;8.95;100.00
11077;BME280;5591;42.626;23.380;2022-10-16T01:59:30;94848.13;;;8.97;100.00
11077;BME280;5591;42.626;23.380;2022-10-16T02:02:00;94842.09;;;8.96;100.00
11077;BME280;5591;42.626;23.380;2022-10-16T02:04:31;94847.81;;;8.92;100.00
11077;BME280;5591;42.626;23.380;2022-10-16T02:06:59;94847.31;;;8.96;100.00
11077;BME280;5591;42.626;23.380;2022-10-16T02:09:26;94855.16;;;8.96;100.00
11077;BME280;5591;42.626;23.380;2022-10-16T02:11:55;94851.72;;;9.04;100.00
11077;BME280;5591;42.626;23.380;2022-10-16T02:14:23;94852.38;;;8.98;100.00
11077;BME280;5591;42.626;23.380;2022-10-16T02:16:51;94866.75;;;8.86;100.00
11077;BME280;5591;42.626;23.380;2022-10-16T02:19:20;94867.41;;;8.88;100.00
11077;BME280;5591;42.626;23.380;2022-10-16T02:21:50;94868.88;;;8.82;100.00
11077;BME280;5591;42.626;23.380;2022-10-16T02:24:24;94865.78;;;8.87;100.00
11077;BME280;5591;42.626;23.380;2022-10-16T02:26:57;94865.97;;;8.85;100.00
11077;BME280;5591;42.626;23.380;2022-10-16T02:29:26;94874.28;;;8.89;100.00
11077;BME280;5591;42.626;23.380;2022-10-16T02:31:58;94874.28;;;8.81;100.00
11077;BME280;5591;42.626;23.380;2022-10-16T02:34:27;94866.28;;;8.74;100.00
11077;BME280;5591;42.626;23.380;2022-10-16T02:36:56;94870.34;;;8.77;100.00
11077;BME280;5591;42.626;23.380;2022-10-16T02:39:26;94871.00;;;8.71;100.00
11077;BME280;5591;42.626;23.380;2022-10-16T02:41:53;94862.16;;;8.64;100.00
11077;BME280;5591;42.626;23.380;2022-10-16T02:44:20;94872.47;;;8.65;100.00
11077;BME280;5591;42.626;23.380;2022-10-16T02:46:47;94876.06;;;8.64;100.00
11077;BME280;5591;42.626;23.380;2022-10-16T02:49:15;94869.00;;;8.65;100.00
11077;BME280;5591;42.626;23.380;2022-10-16T02:51:43;94871.31;;;8.60;100.00
11077;BME280;5591;42.626;23.380;2022-10-16T02:54:10;94877.84;;;8.64;100.00
11077;BME280;5591;42.626;23.380;2022-10-16T02:56:36;94874.25;;;8.65;100.00
11077;BME280;5591;42.626;23.380;2022-10-16T02:59:04;94877.66;;;8.57;100.00
11077;BME280;5591;42.626;23.380;2022-10-16T03:01:31;94874.72;;;8.60;100.00
11077;BME280;5591;42.626;23.380;2022-10-16T03:03:57;94885.00;;;8.54;100.00
11077;BME280;5591;42.626;23.380;2022-10-16T03:06:26;94887.63;;;8.54;100.00
11077;BME280;5591;42.626;23.380;2022-10-16T03:08:52;94887.63;;;8.54;100.00
11077;BME280;5591;42.626;23.380;2022-10-16T03:11:19;94887.31;;;8.49;100.00
11077;BME280;5591;42.626;23.380;2022-10-16T03:13:46;94891.88;;;8.55;100.00
11077;BME280;5591;42.626;23.380;2022-10-16T03:16:13;94891.06;;;8.54;100.00
11077;BME280;5591;42.626;23.380;2022-10-16T03:18:39;94892.69;;;8.47;100.00
11077;BME280;5591;42.626;23.380;2022-10-16T03:21:06;94900.84;;;8.44;100.00
11077;BME280;5591;42.626;23.380;2022-10-16T03:23:35;94898.56;;;8.41;100.00
11077;BME280;5591;42.626;23.380;2022-10-16T03:26:01;94899.22;;;8.51;100.00
11077;BME280;5591;42.626;23.380;2022-10-16T03:28:28;94905.91;;;8.46;100.00
11077;BME280;5591;42.626;23.380;2022-10-16T03:30:55;94906.41;;;8.41;100.00
11077;BME280;5591;42.626;23.380;2022-10-16T03:33:22;94898.84;;;8.30;100.00
11077;BME280;5591;42.626;23.380;2022-10-16T03:35:52;94915.31;;;8.23;100.00
11077;BME280;5591;42.626;23.380;2022-10-16T03:38:19;94902.19;;;8.15;100.00
11077;BME280;5591;42.626;23.380;2022-10-16T03:40:48;94907.88;;;8.10;100.00
11077;BME280;5591;42.626;23.380;2022-10-16T03:43:15;94904.06;;;7.97;100.00
11077;BME280;5591;42.626;23.380;2022-10-16T03:45:41;94908.91;;;7.92;100.00
11077;BME280;5591;42.626;23.380;2022-10-16T03:48:08;94901.72;;;7.86;100.00
11077;BME280;5591;42.626;23.380;2022-10-16T03:50:35;94907.28;;;7.91;100.00
11077;BME280;5591;42.626;23.380;2022-10-16T03:53:02;94903.22;;;7.96;100.00
11077;BME280;5591;42.626;23.380;2022-10-16T03:55:29;94902.94;;;7.99;100.00
11077;BME280;5591;42.626;23.380;2022-10-16T03:57:57;94903.75;;;8.00;100.00
11077;BME280;5591;42.626;23.380;2022-10-16T04:00:24;94895.25;;;7.98;100.00
11077;BME280;5591;42.626;23.380;2022-10-16T04:02:50;94858.22;;;7.77;100.00
11077;BME280;5591;42.626;23.380;2022-10-16T04:05:17;94892.47;;;7.99;100.00
11077;BME280;5591;42.626;23.380;2022-10-16T04:07:44;94877.63;;;7.74;100.00
11077;BME280;5591;42.626;23.380;2022-10-16T04:10:11;94897.75;;;7.82;100.00
11077;BME280;5591;42.626;23.380;2022-10-16T04:12:37;94898.94;;;7.87;100.00
11077;BME280;5591;42.626;23.380;2022-10-16T04:15:07;94889.25;;;7.80;100.00
11077;BME280;5591;42.626;23.380;2022-10-16T04:17:33;94896.63;;;7.84;100.00
11077;BME280;5591;42.626;23.380;2022-10-16T04:20:00;94901.16;;;7.74;100.00
11077;BME280;5591;42.626;23.380;2022-10-16T04:22:27;94901.81;;;7.76;100.00
11077;BME280;5591;42.626;23.380;2022-10-16T04:24:54;94892.00;;;7.70;100.00
11077;BME280;5591;42.626;23.380;2022-10-16T04:27:21;94903.88;;;7.65;100.00
11077;BME280;5591;42.626;23.380;2022-10-16T04:29:47;94890.09;;;7.55;100.00
11077;BME280;5591;42.626;23.380;2022-10-16T04:32:15;94898.59;;;7.57;100.00
11077;BME280;5591;42.626;23.380;2022-10-16T04:34:42;94892.00;;;7.45;100.00
11077;BME280;5591;42.626;23.380;2022-10-16T04:37:09;94900.66;;;7.45;100.00
11077;BME280;5591;42.626;23.380;2022-10-16T04:39:36;94903.22;;;7.37;100.00
11077;BME280;5591;42.626;23.380;2022-10-16T04:42:03;94912.38;;;7.41;100.00
11077;BME280;5591;42.626;23.380;2022-10-16T04:44:29;94910.22;;;7.37;100.00
11077;BME280;5591;42.626;23.380;2022-10-16T04:46:56;94918.31;;;7.51;100.00
11077;BME280;5591;42.626;23.380;2022-10-16T04:49:24;94926.06;;;7.43;100.00
11077;BME280;5591;42.626;23.380;2022-10-16T04:51:51;94923.19;;;7.46;100.00
11077;BME280;5591;42.626;23.380;2022-10-16T04:54:18;94925.09;;;7.62;100.00
11077;BME280;5591;42.626;23.380;2022-10-16T04:56:45;94919.91;;;7.70;100.00
11077;BME280;5591;42.626;23.380;2022-10-16T04:59:13;94932.91;;;7.87;100.00
11077;BME280;5591;42.626;23.380;2022-10-16T05:01:40;94923.59;;;7.85;100.00
11077;BME280;5591;42.626;23.380;2022-10-16T05:04:07;94897.28;;;7.53;100.00
11077;BME280;5591;42.626;23.380;2022-10-16T05:06:36;94933.88;;;7.86;100.00
11077;BME280;5591;42.626;23.380;2022-10-16T05:09:04;94937.31;;;7.87;100.00
11077;BME280;5591;42.626;23.380;2022-10-16T05:11:31;94856.56;;;7.42;100.00
11077;BME280;5591;42.626;23.380;2022-10-16T05:13:57;94945.75;;;8.06;100.00
11077;BME280;5591;42.626;23.380;2022-10-16T05:16:24;94953.88;;;8.21;100.00
11077;BME280;5591;42.626;23.380;2022-10-16T05:18:51;94924.50;;;8.01;100.00
11077;BME280;5591;42.626;23.380;2022-10-16T05:21:18;94953.25;;;8.27;100.00
11077;BME280;5591;42.626;23.380;2022-10-16T05:23:46;94945.78;;;8.14;100.00
11077;BME280;5591;42.626;23.380;2022-10-16T07:12:06;95047.31;;;13.24;100.00
11077;BME280;5591;42.626;23.380;2022-10-16T07:14:33;95046.63;;;13.16;100.00
11077;BME280;5591;42.626;23.380;2022-10-16T07:17:00;95058.53;;;13.47;100.00
11077;BME280;5591;42.626;23.380;2022-10-16T07:19:26;95065.88;;;13.66;100.00
11077;BME280;5591;42.626;23.380;2022-10-16T07:21:53;95058.66;;;13.96;100.00
11077;BME280;5591;42.626;23.380;2022-10-16T07:24:20;95059.19;;;14.06;100.00
11077;BME280;5591;42.626;23.380;2022-10-16T07:26:47;95062.16;;;14.17;100.00
11077;BME280;5591;42.626;23.380;2022-10-16T07:29:17;95064.59;;;14.19;100.00
11077;BME280;5591;42.626;23.380;2022-10-16T07:31:45;95065.03;;;14.43;100.00
11077;BME280;5591;42.626;23.380;2022-10-16T07:34:13;95057.78;;;14.52;100.00
11077;BME280;5591;42.626;23.380;2022-10-16T07:36:40;95055.34;;;14.50;100.00
11077;BME280;5591;42.626;23.380;2022-10-16T07:39:08;95061.66;;;14.83;100.00
11077;BME280;5591;42.626;23.380;2022-10-16T07:41:35;95073.78;;;14.98;100.00
11077;BME280;5591;42.626;23.380;2022-10-16T07:44:03;95070.50;;;14.97;100.00
11077;BME280;5591;42.626;23.380;2022-10-16T07:46:31;95064.66;;;15.01;100.00
11077;BME280;5591;42.626;23.380;2022-10-16T07:48:59;95042.00;;;14.92;100.00
11077;BME280;5591;42.626;23.380;2022-10-16T07:51:26;95072.56;;;15.01;100.00
11077;BME280;5591;42.626;23.380;2022-10-16T07:53:53;95070.56;;;15.37;100.00
11077;BME280;5591;42.626;23.380;2022-10-16T07:56:21;95071.00;;;15.47;100.00
11077;BME280;5591;42.626;23.380;2022-10-16T07:58:48;95057.41;;;15.16;100.00
11077;BME280;5591;42.626;23.380;2022-10-16T08:01:16;95075.03;;;15.43;100.00
11077;BME280;5591;42.626;23.380;2022-10-16T08:03:46;95062.72;;;15.69;100.00
11077;BME280;5591;42.626;23.380;2022-10-16T08:06:14;95078.69;;;15.82;100.00
11077;BME280;5591;42.626;23.380;2022-10-16T08:08:40;95075.25;;;15.41;100.00
11077;BME280;5591;42.626;23.380;2022-10-16T08:11:08;95068.56;;;15.45;100.00
11077;BME280;5591;42.626;23.380;2022-10-16T08:13:35;95072.81;;;15.46;100.00
11077;BME280;5591;42.626;23.380;2022-10-16T08:16:02;95067.44;;;15.74;100.00
11077;BME280;5591;42.626;23.380;2022-10-16T08:18:33;95077.50;;;15.98;100.00
11077;BME280;5591;42.626;23.380;2022-10-16T08:21:02;95070.38;;;16.11;100.00
11077;BME280;5591;42.626;23.380;2022-10-16T08:23:29;95064.25;;;15.98;100.00
11077;BME280;5591;42.626;23.380;2022-10-16T08:26:02;95073.72;;;16.39;100.00
11077;BME280;5591;42.626;23.380;2022-10-16T08:28:29;95068.56;;;16.18;100.00
11077;BME280;5591;42.626;23.380;2022-10-16T08:30:56;95071.66;;;16.28;100.00
11077;BME280;5591;42.626;23.380;2022-10-16T08:33:30;95064.56;;;16.55;100.00
11077;BME280;5591;42.626;23.380;2022-10-16T08:35:57;95058.03;;;16.64;99.57
11077;BME280;5591;42.626;23.380;2022-10-16T08:38:25;95067.63;;;16.71;96.11
11077;BME280;5591;42.626;23.380;2022-10-16T08:40:57;95055.13;;;17.04;93.97
11077;BME280;5591;42.626;23.380;2022-10-16T08:43:40;95064.50;;;17.13;92.19
11077;BME280;5591;42.626;23.380;2022-10-16T08:46:26;95070.88;;;16.93;92.91
11077;BME280;5591;42.626;23.380;2022-10-16T08:48:59;95071.06;;;16.59;99.04
11077;BME280;5591;42.626;23.380;2022-10-16T08:51:29;95082.28;;;16.93;93.99
11077;BME280;5591;42.626;23.380;2022-10-16T08:54:01;95078.56;;;17.27;84.21
11077;BME280;5591;42.626;23.380;2022-10-16T08:56:29;95073.72;;;16.91;83.20
11077;BME280;5591;42.626;23.380;2022-10-16T08:58:57;95076.34;;;17.04;80.82
11077;BME280;5591;42.626;23.380;2022-10-16T09:01:34;95078.97;;;17.24;80.21
11077;BME280;5591;42.626;23.380;2022-10-16T09:07:12;95089.16;;;17.40;76.82
11077;BME280;5591;42.626;23.380;2022-10-16T09:09:56;95074.41;;;17.50;64.78
11077;BME280;5591;42.626;23.380;2022-10-16T09:12:29;95072.84;;;17.86;62.75
11077;BME280;5591;42.626;23.380;2022-10-16T09:15:03;95062.78;;;18.01;63.68
11077;BME280;5591;42.626;23.380;2022-10-16T09:17:41;95071.44;;;18.21;63.51
11077;BME280;5591;42.626;23.380;2022-10-16T09:20:29;95029.56;;;17.86;62.25
11077;BME280;5591;42.626;23.380;2022-10-16T09:23:10;95065.09;;;18.29;59.68
11077;BME280;5591;42.626;23.380;2022-10-16T09:25:43;95074.78;;;17.66;66.69
11077;BME280;5591;42.626;23.380;2022-10-16T09:28:11;95070.47;;;18.16;64.23
11077;BME280;5591;42.626;23.380;2022-10-16T09:30:38;95023.13;;;17.63;61.41
11077;BME280;5591;42.626;23.380;2022-10-16T09:33:06;95073.13;;;18.09;62.80
11077;BME280;5591;42.626;23.380;2022-10-16T09:35:38;95079.41;;;18.21;61.18
11077;BME280;5591;42.626;23.380;2022-10-16T09:38:06;95064.16;;;18.41;60.55
11077;BME280;5591;42.626;23.380;2022-10-16T09:40:35;95067.81;;;18.71;58.20
11077;BME280;5591;42.626;23.380;2022-10-16T09:43:19;95065.97;;;18.47;57.87
11077;BME280;5591;42.626;23.380;2022-10-16T09:45:54;95066.00;;;18.10;58.90
11077;BME280;5591;42.626;23.380;2022-10-16T09:48:22;95063.72;;;18.13;61.07
11077;BME280;5591;42.626;23.380;2022-10-16T09:50:56;95063.84;;;18.31;59.73
11077;BME280;5591;42.626;23.380;2022-10-16T09:53:23;95056.72;;;18.56;57.81
11077;BME280;5591;42.626;23.380;2022-10-16T09:55:53;95061.75;;;18.89;56.28
11077;BME280;5591;42.626;23.380;2022-10-16T09:58:23;94989.53;;;17.81;55.89
11077;BME280;5591;42.626;23.380;2022-10-16T10:00:52;95059.09;;;18.64;56.17
11077;BME280;5591;42.626;23.380;2022-10-16T10:03:35;95053.94;;;18.69;56.72
11077;BME280;5591;42.626;23.380;2022-10-16T10:06:14;95021.81;;;18.46;58.46
11077;BME280;5591;42.626;23.380;2022-10-16T10:08:53;95043.34;;;18.87;58.48
11077;BME280;5591;42.626;23.380;2022-10-16T10:11:39;95028.44;;;19.04;55.56
11077;BME280;5591;42.626;23.380;2022-10-16T10:14:17;95034.50;;;19.11;55.71
11077;BME280;5591;42.626;23.380;2022-10-16T10:16:44;95035.94;;;19.14;54.84
11077;BME280;5591;42.626;23.380;2022-10-16T10:19:14;95039.00;;;19.11;54.74
11077;BME280;5591;42.626;23.380;2022-10-16T10:21:41;95030.22;;;19.35;55.41
11077;BME280;5591;42.626;23.380;2022-10-16T10:24:11;95034.41;;;19.00;55.90
11077;BME280;5591;42.626;23.380;2022-10-16T10:26:38;95046.59;;;18.65;58.22
11077;BME280;5591;42.626;23.380;2022-10-16T10:29:11;95039.72;;;18.82;56.92
11077;BME280;5591;42.626;23.380;2022-10-16T10:31:49;95046.03;;;17.94;60.55
11077;BME280;5591;42.626;23.380;2022-10-16T10:34:32;95034.06;;;18.16;60.66
11077;BME280;5591;42.626;23.380;2022-10-16T10:37:08;95033.66;;;18.13;59.39
11077;BME280;5591;42.626;23.380;2022-10-16T10:39:44;95025.94;;;18.67;56.88
11077;BME280;5591;42.626;23.380;2022-10-16T10:42:21;95035.25;;;17.52;60.49
11077;BME280;5591;42.626;23.380;2022-10-16T10:45:11;95033.25;;;17.85;60.81
11077;BME280;5591;42.626;23.380;2022-10-16T10:47:48;94978.78;;;18.00;57.22
11077;BME280;5591;42.626;23.380;2022-10-16T10:50:22;95028.84;;;18.03;57.56
11077;BME280;5591;42.626;23.380;2022-10-16T10:52:58;95020.31;;;18.99;54.54
11077;BME280;5591;42.626;23.380;2022-10-16T10:55:33;95015.41;;;20.04;53.15
11077;BME280;5591;42.626;23.380;2022-10-16T10:58:37;95002.72;;;20.93;48.64
11077;BME280;5591;42.626;23.380;2022-10-16T11:01:11;95008.47;;;20.44;47.89
11077;BME280;5591;42.626;23.380;2022-10-16T11:03:50;95000.50;;;21.36;46.28
11077;BME280;5591;42.626;23.380;2022-10-16T11:06:26;94999.88;;;21.57;45.11
11077;BME280;5591;42.626;23.380;2022-10-16T11:08:59;94999.16;;;21.61;44.44
11077;BME280;5591;42.626;23.380;2022-10-16T11:11:31;95005.16;;;21.17;43.86
11077;BME280;5591;42.626;23.380;2022-10-16T11:14:03;94997.75;;;20.96;44.20
11077;BME280;5591;42.626;23.380;2022-10-16T11:16:37;94998.84;;;21.46;43.81
11077;BME280;5591;42.626;23.380;2022-10-16T11:19:25;94996.94;;;22.87;40.55
11077;BME280;5591;42.626;23.380;2022-10-16T11:22:01;94926.50;;;23.67;37.95
11077;BME280;5591;42.626;23.380;2022-10-16T11:24:36;94995.59;;;24.82;36.61
11077;BME280;5591;42.626;23.380;2022-10-16T11:27:08;94982.69;;;24.53;36.08
11077;BME280;5591;42.626;23.380;2022-10-16T11:29:42;94987.47;;;24.46;35.89
11077;BME280;5591;42.626;23.380;2022-10-16T11:32:21;94983.50;;;24.85;35.13
11077;BME280;5591;42.626;23.380;2022-10-16T11:34:52;94985.28;;;25.93;33.95
11077;BME280;5591;42.626;23.380;2022-10-16T11:37:25;94984.59;;;27.53;32.56
11077;BME280;5591;42.626;23.380;2022-10-16T11:39:59;94990.38;;;28.00;30.80
11077;BME280;5591;42.626;23.380;2022-10-16T11:42:33;94985.69;;;27.42;31.74
11077;BME280;5591;42.626;23.380;2022-10-16T11:45:13;94982.84;;;28.50;30.65
11077;BME280;5591;42.626;23.380;2022-10-16T11:47:54;94980.47;;;29.44;29.96
11077;BME280;5591;42.626;23.380;2022-10-16T11:50:30;94975.53;;;30.21;28.78
11077;BME280;5591;42.626;23.380;2022-10-16T11:53:02;94973.97;;;31.26;27.50
11077;BME280;5591;42.626;23.380;2022-10-16T11:55:34;94976.63;;;28.93;29.08
11077;BME280;5591;42.626;23.380;2022-10-16T11:58:05;94977.34;;;27.28;31.92
11077;BME280;5591;42.626;23.380;2022-10-16T12:00:38;94971.59;;;29.10;30.17
11077;BME280;5591;42.626;23.380;2022-10-16T12:03:15;94975.84;;;29.44;29.13
11077;BME280;5591;42.626;23.380;2022-10-16T12:05:55;94979.53;;;28.10;30.67
11077;BME280;5591;42.626;23.380;2022-10-16T12:08:23;94980.22;;;27.72;30.40
11077;BME280;5591;42.626;23.380;2022-10-16T12:10:51;94982.72;;;27.48;31.33
11077;BME280;5591;42.626;23.380;2022-10-16T12:13:29;94981.03;;;29.12;29.06
11077;BME280;5591;42.626;23.380;2022-10-16T12:16:18;94972.09;;;30.16;27.76
11077;BME280;5591;42.626;23.380;2022-10-16T12:18:48;94972.81;;;30.95;27.53
11077;BME280;5591;42.626;23.380;2022-10-16T12:21:16;94966.09;;;29.95;28.95
11077;BME280;5591;42.626;23.380;2022-10-16T12:23:48;94976.84;;;30.00;28.57
11077;BME280;5591;42.626;23.380;2022-10-16T12:26:24;94979.53;;;29.82;28.25
11077;BME280;5591;42.626;23.380;2022-10-16T12:28:51;94976.84;;;30.00;28.70
11077;BME280;5591;42.626;23.380;2022-10-16T12:31:18;94977.63;;;27.37;30.46
11077;BME280;5591;42.626;23.380;2022-10-16T12:33:57;94979.13;;;27.78;30.54
11077;BME280;5591;42.626;23.380;2022-10-16T12:36:29;94982.22;;;29.58;28.82
11077;BME280;5591;42.626;23.380;2022-10-16T12:38:56;94972.91;;;30.16;28.41
11077;BME280;5591;42.626;23.380;2022-10-16T12:41:26;94933.44;;;29.87;28.90
11077;BME280;5591;42.626;23.380;2022-10-16T12:43:53;94977.75;;;30.38;28.54
11077;BME280;5591;42.626;23.380;2022-10-16T12:46:35;94974.06;;;30.10;27.66
11077;BME280;5591;42.626;23.380;2022-10-16T12:49:21;94980.34;;;28.97;29.46
11077;BME280;5591;42.626;23.380;2022-10-16T12:51:49;94986.34;;;28.89;29.89
11077;BME280;5591;42.626;23.380;2022-10-16T12:54:18;94977.56;;;29.87;29.00
11077;BME280;5591;42.626;23.380;2022-10-16T12:56:51;94983.63;;;31.32;27.39
11077;BME280;5591;42.626;23.380;2022-10-16T12:59:31;94982.78;;;31.18;27.31
11077;BME280;5591;42.626;23.380;2022-10-16T13:02:18;94981.84;;;31.54;27.18
11077;BME280;5591;42.626;23.380;2022-10-16T13:05:06;94977.88;;;31.34;26.93
11077;BME280;5591;42.626;23.380;2022-10-16T13:07:47;94995.81;;;31.93;26.38
11077;BME280;5591;42.626;23.380;2022-10-16T13:10:24;95000.59;;;30.50;27.90
11077;BME280;5591;42.626;23.380;2022-10-16T13:13:10;94990.25;;;31.26;27.42
11077;BME280;5591;42.626;23.380;2022-10-16T13:15:51;94996.91;;;32.46;26.55
11077;BME280;5591;42.626;23.380;2022-10-16T13:18:22;94985.66;;;32.61;26.24
11077;BME280;5591;42.626;23.380;2022-10-16T13:21:04;94955.25;;;31.70;26.79
11077;BME280;5591;42.626;23.380;2022-10-16T13:23:41;94982.13;;;32.39;26.55
11077;BME280;5591;42.626;23.380;2022-10-16T13:26:19;94985.44;;;32.85;27.03
11077;BME280;5591;42.626;23.380;2022-10-16T13:28:48;94983.75;;;32.75;26.83
11077;BME280;5591;42.626;23.380;2022-10-16T13:31:18;94967.97;;;32.50;26.88
11077;BME280;5591;42.626;23.380;2022-10-16T13:33:48;94985.16;;;33.61;26.34
11077;BME280;5591;42.626;23.380;2022-10-16T13:36:21;94986.09;;;33.26;25.96
11077;BME280;5591;42.626;23.380;2022-10-16T13:39:00;94992.53;;;34.21;25.03
11077;BME280;5591;42.626;23.380;2022-10-16T13:41:27;94988.78;;;32.68;25.53
11077;BME280;5591;42.626;23.380;2022-10-16T13:43:54;95003.00;;;31.58;26.07
11077;BME280;5591;42.626;23.380;2022-10-16T13:46:24;94994.00;;;31.30;26.03
11077;BME280;5591;42.626;23.380;2022-10-16T13:48:57;94993.28;;;31.70;26.46
11077;BME280;5591;42.626;23.380;2022-10-16T13:51:26;95003.34;;;31.38;27.29
11077;BME280;5591;42.626;23.380;2022-10-16T13:53:54;94996.00;;;32.10;26.03
11077;BME280;5591;42.626;23.380;2022-10-16T13:56:24;94960.69;;;32.95;25.77
11077;BME280;5591;42.626;23.380;2022-10-16T13:58:59;95007.28;;;32.31;26.32
11077;BME280;5591;42.626;23.380;2022-10-16T14:01:28;94932.75;;;32.81;25.75
11077;BME280;5591;42.626;23.380;2022-10-16T14:04:01;95004.41;;;32.63;26.17
11077;BME280;5591;42.626;23.380;2022-10-16T14:06:31;94999.94;;;33.38;25.21
11077;BME280;5591;42.626;23.380;2022-10-16T14:09:01;94995.19;;;34.13;25.32
11077;BME280;5591;42.626;23.380;2022-10-16T14:11:31;94999.25;;;32.26;26.25
11077;BME280;5591;42.626;23.380;2022-10-16T14:13:59;95006.28;;;30.72;27.63
11077;BME280;5591;42.626;23.380;2022-10-16T14:16:30;95010.09;;;31.85;26.56
11077;BME280;5591;42.626;23.380;2022-10-16T14:18:59;95013.34;;;30.50;27.93
11077;BME280;5591;42.626;23.380;2022-10-16T14:21:26;95017.97;;;31.23;26.97
11077;BME280;5591;42.626;23.380;2022-10-16T14:23:55;95018.13;;;30.76;27.48
11077;BME280;5591;42.626;23.380;2022-10-16T14:26:24;94958.47;;;30.21;27.27
11077;BME280;5591;42.626;23.380;2022-10-16T14:29:08;95028.66;;;30.41;27.80
11077;BME280;5591;42.626;23.380;2022-10-16T14:31:37;95033.22;;;31.51;26.66
11077;BME280;5591;42.626;23.380;2022-10-16T14:34:23;95020.34;;;30.74;27.27
11077;BME280;5591;42.626;23.380;2022-10-16T14:36:50;95021.81;;;29.78;28.31
11077;BME280;5591;42.626;23.380;2022-10-16T14:39:20;95029.59;;;30.31;27.99
11077;BME280;5591;42.626;23.380;2022-10-16T14:41:49;95027.34;;;30.57;27.27
11077;BME280;5591;42.626;23.380;2022-10-16T14:44:17;95012.06;;;29.53;28.09
11077;BME280;5591;42.626;23.380;2022-10-16T14:46:44;95019.19;;;30.62;26.97
11077;BME280;5591;42.626;23.380;2022-10-16T14:49:16;95028.28;;;30.89;26.71
11077;BME280;5591;42.626;23.380;2022-10-16T14:51:45;95039.56;;;30.54;27.59
11077;BME280;5591;42.626;23.380;2022-10-16T14:54:13;95038.16;;;30.80;26.95
11077;BME280;5591;42.626;23.380;2022-10-16T14:56:46;95042.03;;;29.28;28.32
11077;BME280;5591;42.626;23.380;2022-10-16T14:59:16;95041.19;;;27.93;29.47
11077;BME280;5591;42.626;23.380;2022-10-16T15:01:44;95051.47;;;25.94;31.69
11077;BME280;5591;42.626;23.380;2022-10-16T15:04:13;95027.78;;;25.45;32.77
11077;BME280;5591;42.626;23.380;2022-10-16T15:06:40;95063.16;;;24.69;33.68